Time;durP1;ratioP1;P1;durP2;ratioP2;P2;SDS_P1;SDS_P2;PMS_P1;PMS_P2;Temp;Humidity;BMP_temperature;BMP_pressure;BME280_temperature;BME280_humidity;BME280_pressure;Samples;Min_cycle;Max_cycle;Signal;HPM_P1;HPM_P2
2022/01/04 00:01:47;;;;;;;;;;;;;;;11.31;59.81;99369.94;4500317;31;20597;-86
2022/01/04 00:04:12;;;;;;;;;;;;;;;11.42;59.81;99369.53;4486140;31;20292;-86
2022/01/04 00:06:37;;;;;;;;;;;;;;;11.45;59.81;99372.00;4485567;31;20015;-86
2022/01/04 00:09:04;;;;;;;;;;;;;;;11.31;59.81;99359.53;4500429;31;20043;-86
2022/01/04 00:14:10;;;;;;;;;;;;;;;11.28;59.80;99364.03;4488033;31;19988;-85
2022/01/04 00:16:35;;;;;;;;;;;;;;;11.42;59.81;99360.84;4500446;31;20465;-86
2022/01/04 00:19:01;;;;;;;;;;;;;;;11.43;59.81;99362.56;4485973;31;20343;-86
2022/01/04 00:21:26;;;;;;;;;;;;;;;11.01;59.79;99372.03;4473092;31;19971;-86
2022/01/04 00:23:51;;;;;;;;;;;;;;;10.90;59.78;99365.56;4486004;31;20002;-85
2022/01/04 00:26:16;;;;;;;;;;;;;;;10.93;59.79;99362.84;4472548;31;22721;-85
2022/01/04 00:28:41;;;;;;;;;;;;;;;10.96;59.79;99367.94;4486092;31;20003;-85
2022/01/04 00:31:07;;;;;;;;;;;;;;;10.91;59.78;99359.47;4486023;31;19988;-85
2022/01/04 00:33:32;;;;;;;;;;;;;;;11.14;59.79;99355.94;4485668;31;23602;-85
2022/01/04 00:35:57;;;;;;;;;;;;;;;11.03;59.79;99352.00;4485590;31;20027;-85
2022/01/04 00:38:22;;;;;;;;;;;;;;;10.86;59.78;99361.37;4485870;31;20029;-85
2022/01/04 00:40:48;;;;;;;;;;;;;;;10.73;59.77;99368.81;4472503;31;31859;-86
2022/01/04 00:43:13;;;;;;;;;;;;;;;10.90;59.79;99365.56;4486010;31;20015;-85
2022/01/04 00:45:38;;;;;;;;;;;;;;;10.91;59.78;99360.31;4500477;31;20323;-85
2022/01/04 00:50:29;;;;;;;;;;;;;;;10.82;59.78;99355.44;4485924;31;19975;-84
2022/01/04 00:52:55;;;;;;;;;;;;;;;10.99;59.79;99354.78;4485825;31;20010;-85
2022/01/04 00:55:21;;;;;;;;;;;;;;;11.20;59.80;99346.09;4485906;31;20253;-85
2022/01/04 00:57:46;;;;;;;;;;;;;;;11.08;59.80;99342.22;4500467;31;19998;-85
2022/01/04 01:00:12;;;;;;;;;;;;;;;10.86;59.78;99345.75;4499664;31;27206;-85
2022/01/04 01:02:37;;;;;;;;;;;;;;;11.08;59.80;99344.84;4485866;31;20007;-85
2022/01/04 01:05:02;;;;;;;;;;;;;;;11.00;59.79;99346.91;4500136;31;19984;-85
2022/01/04 01:07:28;;;;;;;;;;;;;;;10.95;59.79;99346.25;4500351;31;20006;-85
2022/01/04 01:12:21;;;;;;;;;;;;;;;10.96;59.79;99342.75;4486164;31;19976;-85
2022/01/04 01:14:46;;;;;;;;;;;;;;;11.01;59.80;99338.19;4499840;31;22591;-85
2022/01/04 01:17:11;;;;;;;;;;;;;;;10.77;59.78;99336.56;4499830;31;22642;-86
2022/01/04 01:19:37;;;;;;;;;;;;;;;10.82;59.78;99336.38;4471989;31;23395;-86
2022/01/04 01:22:03;;;;;;;;;;;;;;;10.85;59.77;99341.44;4485806;31;19976;-85
2022/01/04 01:24:28;;;;;;;;;;;;;;;10.96;59.79;99324.50;4485457;31;20019;-86
2022/01/04 01:26:53;;;;;;;;;;;;;;;10.87;59.78;99327.47;4485062;31;20619;-86
2022/01/04 01:29:18;;;;;;;;;;;;;;;10.83;59.78;99331.09;4499430;31;22746;-87
2022/01/04 01:31:44;;;;;;;;;;;;;;;10.89;59.78;99327.44;4499330;31;23111;-87
2022/01/04 01:34:09;;;;;;;;;;;;;;;10.98;59.78;99322.69;4484870;31;23738;-87
2022/01/04 01:36:34;;;;;;;;;;;;;;;10.91;59.78;99317.78;4499150;31;28868;-87
2022/01/04 01:38:59;;;;;;;;;;;;;;;10.96;59.79;99310.62;4485203;31;20018;-87
2022/01/04 01:41:24;;;;;;;;;;;;;;;10.89;59.78;99314.41;4484938;31;20427;-86
2022/01/04 01:43:50;;;;;;;;;;;;;;;10.84;59.77;99332.78;4485410;31;20036;-87
2022/01/04 01:46:15;;;;;;;;;;;;;;;10.93;59.79;99313.38;4499332;31;20655;-87
2022/01/04 01:48:40;;;;;;;;;;;;;;;10.99;59.79;99305.31;4484681;31;27540;-86
2022/01/04 01:51:05;;;;;;;;;;;;;;;11.03;59.78;99297.28;4499884;31;19992;-87
2022/01/04 01:53:31;;;;;;;;;;;;;;;10.80;59.78;99294.78;4484660;31;20583;-87
2022/01/04 01:55:56;;;;;;;;;;;;;;;10.81;59.78;99285.22;4485239;31;20003;-87
2022/01/04 01:58:22;;;;;;;;;;;;;;;10.83;59.78;99283.38;4471949;31;20100;-87
2022/01/04 02:00:47;;;;;;;;;;;;;;;10.70;59.78;99272.62;4485083;31;19992;-87
2022/01/04 02:03:12;;;;;;;;;;;;;;;10.70;59.78;99257.88;4471967;31;19985;-86
2022/01/04 02:05:37;;;;;;;;;;;;;;;10.70;59.78;99234.44;4484450;31;26588;-87
2022/01/04 02:08:03;;;;;;;;;;;;;;;10.79;59.78;99217.59;4499516;31;20011;-86
2022/01/04 02:10:29;;;;;;;;;;;;;;;10.68;59.77;99210.22;4471717;31;19987;-86
2022/01/04 02:12:54;;;;;;;;;;;;;;;10.66;59.77;99206.84;4484832;31;20044;-87
2022/01/04 02:15:20;;;;;;;;;;;;;;;10.63;59.77;99203.50;4471652;31;19990;-86
2022/01/04 02:17:45;;;;;;;;;;;;;;;10.58;59.77;99211.50;4486507;31;20123;-86
2022/01/04 02:20:11;;;;;;;;;;;;;;;10.50;59.76;99213.56;4487013;31;20030;-86
2022/01/04 02:22:36;;;;;;;;;;;;;;;10.54;59.76;99199.53;4487135;31;20067;-86
2022/01/04 02:25:02;;;;;;;;;;;;;;;10.40;59.76;99192.25;4501485;31;19994;-86
2022/01/04 02:27:27;;;;;;;;;;;;;;;10.23;59.74;99189.50;4501514;31;20272;-86
2022/01/04 02:29:52;;;;;;;;;;;;;;;10.20;59.74;99192.19;4486564;31;20525;-86
2022/01/04 02:32:17;;;;;;;;;;;;;;;10.36;59.75;99202.84;4486625;31;19999;-87
2022/01/04 02:34:46;;;;;;;;;;;;;;;10.18;59.75;99196.62;4501549;31;20014;-85
2022/01/04 02:37:11;;;;;;;;;;;;;;;10.00;59.73;99202.53;4486966;31;20044;-85
2022/01/04 02:39:37;;;;;;;;;;;;;;;9.99;59.73;99203.44;4500777;31;23141;-86
2022/01/04 02:42:03;;;;;;;;;;;;;;;10.00;59.73;99205.12;4501333;31;20011;-87
2022/01/04 02:44:28;;;;;;;;;;;;;;;9.95;59.73;99210.50;4487007;31;20007;-87
2022/01/04 02:46:53;;;;;;;;;;;;;;;9.95;59.73;99220.91;4486818;31;19968;-86
2022/01/04 02:49:18;;;;;;;;;;;;;;;10.13;59.74;99217.56;4486433;31;23539;-87
2022/01/04 02:51:43;;;;;;;;;;;;;;;10.12;59.74;99213.28;4473161;31;21011;-86
2022/01/04 02:54:09;;;;;;;;;;;;;;;10.07;59.73;99212.62;4473377;31;20064;-87
2022/01/04 02:56:35;;;;;;;;;;;;;;;10.06;59.74;99208.31;4486153;31;23310;-87
2022/01/04 02:59:03;;;;;;;;;;;;;;;10.14;59.74;99203.66;4486922;31;20320;-87
2022/01/04 03:01:29;;;;;;;;;;;;;;;10.21;59.74;99206.09;4474022;31;20006;-87
2022/01/04 03:03:54;;;;;;;;;;;;;;;10.06;59.74;99208.31;4486795;31;20000;-87
2022/01/04 03:06:20;;;;;;;;;;;;;;;9.95;59.73;99212.25;4501329;31;20301;-87
2022/01/04 03:08:45;;;;;;;;;;;;;;;10.03;59.74;99198.03;4473701;31;19992;-86
2022/01/04 03:11:10;;;;;;;;;;;;;;;10.05;59.74;99195.38;4486780;31;20047;-86
2022/01/04 03:13:35;;;;;;;;;;;;;;;10.18;59.75;99186.22;4501339;31;20037;-87
2022/01/04 03:16:01;;;;;;;;;;;;;;;10.32;59.75;99183.94;4472896;31;25682;-86
2022/01/04 03:18:26;;;;;;;;;;;;;;;10.44;59.76;99173.03;4501006;31;20218;-87
2022/01/04 03:20:51;;;;;;;;;;;;;;;10.47;59.76;99177.28;4486842;31;19996;-86
2022/01/04 03:23:16;;;;;;;;;;;;;;;10.45;59.76;99179.94;4486763;31;20008;-86
2022/01/04 03:25:42;;;;;;;;;;;;;;;10.28;59.75;99176.31;4486623;31;19986;-86
2022/01/04 03:28:07;;;;;;;;;;;;;;;10.11;59.74;99172.59;4501125;31;19999;-86
2022/01/04 03:30:32;;;;;;;;;;;;;;;10.16;59.75;99165.44;4486181;31;20010;-86
2022/01/04 03:32:58;;;;;;;;;;;;;;;10.24;59.74;99156.53;4486727;31;19984;-87
2022/01/04 03:35:23;;;;;;;;;;;;;;;10.10;59.74;99157.88;4486626;31;20256;-86
2022/01/04 03:37:50;;;;;;;;;;;;;;;10.06;59.74;99156.31;4473491;31;19984;-86
2022/01/04 03:40:15;;;;;;;;;;;;;;;9.88;59.73;99151.84;4486725;31;19980;-89
2022/01/04 03:42:40;;;;;;;;;;;;;;;9.87;59.73;99142.34;4475012;31;20014;-89
2022/01/04 03:45:06;;;;;;;;;;;;;;;9.81;59.73;99137.38;4503998;31;19994;-89
2022/01/04 03:47:31;;;;;;;;;;;;;;;9.90;59.73;99139.63;4495718;31;20015;-86
2022/01/04 03:49:56;;;;;;;;;;;;;;;9.74;59.72;99148.94;4502892;31;20006;-86
2022/01/04 03:52:21;;;;;;;;;;;;;;;9.68;59.72;99149.13;4512794;31;19980;-89
2022/01/04 03:54:46;;;;;;;;;;;;;;;9.58;59.71;99150.41;4504825;31;22198;-89
2022/01/04 03:57:12;;;;;;;;;;;;;;;9.67;59.72;99140.50;4503606;31;19964;-89
2022/01/04 03:59:37;;;;;;;;;;;;;;;9.53;59.71;99135.00;4486532;31;19992;-90
2022/01/04 04:02:02;;;;;;;;;;;;;;;9.58;59.71;99127.03;4486525;31;20055;-89
2022/01/04 04:04:28;;;;;;;;;;;;;;;9.52;59.71;99120.31;4486591;31;20028;-90
2022/01/04 04:06:53;;;;;;;;;;;;;;;9.58;59.71;99121.81;4473352;31;20014;-88
2022/01/04 04:09:18;;;;;;;;;;;;;;;9.58;59.71;99114.03;4486397;31;20031;-88
2022/01/04 04:11:43;;;;;;;;;;;;;;;9.39;59.70;99108.69;4486088;31;20028;-88
2022/01/04 04:14:09;;;;;;;;;;;;;;;9.62;59.71;99113.00;4500940;31;20033;-89
2022/01/04 04:16:34;;;;;;;;;;;;;;;9.32;59.69;99115.00;4473497;31;19987;-89
2022/01/04 04:18:59;;;;;;;;;;;;;;;9.47;59.70;99114.44;4474103;31;20011;-88
2022/01/04 04:21:24;;;;;;;;;;;;;;;9.53;59.71;99119.41;4500271;31;27086;-86
2022/01/04 04:23:49;;;;;;;;;;;;;;;9.49;59.71;99107.44;4486038;31;20305;-87
2022/01/04 04:26:15;;;;;;;;;;;;;;;9.46;59.70;99110.13;4485742;31;20291;-86
2022/01/04 04:28:40;;;;;;;;;;;;;;;9.51;59.71;99103.88;4472948;31;19976;-87
2022/01/04 04:31:05;;;;;;;;;;;;;;;9.53;59.71;99109.87;4485810;31;20012;-87
2022/01/04 04:33:31;;;;;;;;;;;;;;;9.51;59.71;99101.28;4486245;31;20102;-87
2022/01/04 04:35:56;;;;;;;;;;;;;;;9.51;59.71;99090.88;4486185;31;20017;-87
2022/01/04 04:38:21;;;;;;;;;;;;;;;9.48;59.70;99098.81;4486554;31;20000;-87
2022/01/04 04:40:47;;;;;;;;;;;;;;;9.50;59.71;99089.19;4472393;31;20006;-89
2022/01/04 04:43:12;;;;;;;;;;;;;;;9.52;59.71;99092.59;4485992;31;20398;-88
2022/01/04 04:45:37;;;;;;;;;;;;;;;9.42;59.71;99082.56;4485739;31;20044;-88
2022/01/04 04:48:02;;;;;;;;;;;;;;;9.37;59.70;99093.16;4485599;31;20049;-88
2022/01/04 04:50:29;;;;;;;;;;;;;;;9.18;59.68;99103.38;4472953;31;20038;-89
2022/01/04 04:52:54;;;;;;;;;;;;;;;9.10;59.68;99095.03;4486326;31;19952;-89
2022/01/04 04:55:19;;;;;;;;;;;;;;;9.17;59.69;99088.69;4486161;31;20276;-89
2022/01/04 04:57:45;;;;;;;;;;;;;;;9.02;59.67;99078.03;4473534;31;20011;-88
2022/01/04 05:00:10;;;;;;;;;;;;;;;9.07;59.68;99076.97;4486068;31;19985;-87
2022/01/04 05:02:36;;;;;;;;;;;;;;;9.00;59.68;99072.91;4500385;31;19988;-87
2022/01/04 05:05:01;;;;;;;;;;;;;;;9.04;59.67;99076.22;4486004;31;20028;-87
2022/01/04 05:07:26;;;;;;;;;;;;;;;9.06;59.68;99077.88;4500223;31;19991;-88
2022/01/04 05:09:52;;;;;;;;;;;;;;;8.94;59.67;99070.50;4472809;31;20007;-88
2022/01/04 05:12:17;;;;;;;;;;;;;;;8.96;59.67;99073.91;4472769;31;20309;-88
2022/01/04 05:14:46;;;;;;;;;;;;;;;9.01;59.68;99074.59;4472718;31;20015;-89
2022/01/04 05:17:11;;;;;;;;;;;;;;;9.02;59.68;99076.28;4473129;31;19975;-87
2022/01/04 05:19:37;;;;;;;;;;;;;;;8.93;59.67;99085.25;4474654;31;20263;-87
2022/01/04 05:22:02;;;;;;;;;;;;;;;8.93;59.67;99077.44;4501148;31;21154;-87
2022/01/04 05:24:27;;;;;;;;;;;;;;;8.74;59.67;99076.41;4485795;31;20010;-88
2022/01/04 05:26:52;;;;;;;;;;;;;;;8.74;59.66;99078.16;4500179;31;20014;-88
2022/01/04 05:29:18;;;;;;;;;;;;;;;8.85;59.67;99082.09;4472514;31;20308;-87
2022/01/04 05:31:43;;;;;;;;;;;;;;;8.65;59.66;99068.97;4486222;31;20028;-90
2022/01/04 05:34:08;;;;;;;;;;;;;;;8.59;59.66;99062.25;4472988;31;19976;-88
2022/01/04 05:36:33;;;;;;;;;;;;;;;8.59;59.66;99058.81;4471922;31;20619;-89
2022/01/04 05:39:00;;;;;;;;;;;;;;;8.65;59.66;99055.13;4472401;31;20026;-89
2022/01/04 05:41:25;;;;;;;;;;;;;;;8.51;59.66;99047.81;4472514;31;19972;-88
2022/01/04 05:43:51;;;;;;;;;;;;;;;8.58;59.65;99039.81;4472134;31;20031;-88
2022/01/04 05:46:16;;;;;;;;;;;;;;;8.48;59.65;99038.41;4471950;31;20982;-89
2022/01/04 05:48:41;;;;;;;;;;;;;;;8.37;59.64;99031.91;4472405;31;19996;-86
2022/01/04 05:51:07;;;;;;;;;;;;;;;8.36;59.64;99025.03;4485813;31;19992;-87
2022/01/04 05:53:33;;;;;;;;;;;;;;;8.38;59.65;99018.06;4487425;31;19987;-87
2022/01/04 05:55:58;;;;;;;;;;;;;;;8.29;59.63;99017.44;4474243;31;19995;-86
2022/01/04 05:58:23;;;;;;;;;;;;;;;8.28;59.63;99020.06;4487289;31;20256;-86
2022/01/04 06:00:49;;;;;;;;;;;;;;;8.26;59.64;99021.88;4486561;31;22067;-86
2022/01/04 06:03:15;;;;;;;;;;;;;;;8.29;59.63;99022.62;4487295;31;19980;-87
2022/01/04 06:05:40;;;;;;;;;;;;;;;8.25;59.63;99021.03;4487116;31;20000;-88
2022/01/04 06:08:05;;;;;;;;;;;;;;;8.13;59.63;99021.44;4501654;31;19991;-87
2022/01/04 06:10:37;;;;;;;;;;;;;;;8.14;59.63;99019.69;4473894;31;19981;-88
2022/01/04 06:15:27;;;;;;;;;;;;;;;8.29;59.63;99016.59;4501620;31;19991;-87
2022/01/04 06:17:53;;;;;;;;;;;;;;;8.13;59.63;99010.22;4486773;31;20279;-88
2022/01/04 06:20:21;;;;;;;;;;;;;;;8.19;59.63;99010.87;4487096;31;19998;-87
2022/01/04 06:22:47;;;;;;;;;;;;;;;8.35;59.64;99012.97;4501601;31;19977;-87
2022/01/04 06:25:13;;;;;;;;;;;;;;;8.28;59.64;99009.69;4501593;31;20095;-87
2022/01/04 06:27:41;;;;;;;;;;;;;;;8.13;59.63;99008.50;4474067;31;20003;-87
2022/01/04 06:30:06;;;;;;;;;;;;;;;8.09;59.63;98999.12;4487030;31;19968;-87
2022/01/04 06:32:31;;;;;;;;;;;;;;;8.13;59.63;99000.72;4473831;31;20029;-87
2022/01/04 06:34:56;;;;;;;;;;;;;;;8.07;59.64;99000.94;4487286;31;22970;-86
2022/01/04 06:37:22;;;;;;;;;;;;;;;8.09;59.63;98999.12;4486777;31;20358;-87
2022/01/04 06:39:47;;;;;;;;;;;;;;;8.23;59.64;98991.72;4486987;31;20234;-87
2022/01/04 06:42:12;;;;;;;;;;;;;;;8.29;59.63;98988.94;4487009;31;19987;-87
2022/01/04 06:44:38;;;;;;;;;;;;;;;8.26;59.64;98982.97;4486919;31;19986;-87
2022/01/04 06:47:03;;;;;;;;;;;;;;;8.25;59.64;98983.88;4501569;31;20004;-87
2022/01/04 06:49:28;;;;;;;;;;;;;;;8.13;59.63;98979.97;4486864;31;20024;-86
2022/01/04 06:51:53;;;;;;;;;;;;;;;8.04;59.62;98974.25;4473520;31;20040;-87
2022/01/04 06:54:19;;;;;;;;;;;;;;;7.95;59.62;98975.41;4474612;31;20313;-87
2022/01/04 06:56:44;;;;;;;;;;;;;;;8.04;59.62;98975.09;4486944;31;19999;-87
2022/01/04 06:59:10;;;;;;;;;;;;;;;8.01;59.63;98980.37;4473596;31;20000;-87
2022/01/04 07:01:35;;;;;;;;;;;;;;;7.92;59.62;98970.34;4473428;31;20012;-88
2022/01/04 07:04:00;;;;;;;;;;;;;;;8.01;59.63;98970.00;4473382;31;20016;-87
2022/01/04 07:06:25;;;;;;;;;;;;;;;8.20;59.63;98962.44;4486610;31;20331;-88
2022/01/04 07:08:51;;;;;;;;;;;;;;;8.20;59.63;98968.47;4486712;31;19988;-86
2022/01/04 07:11:16;;;;;;;;;;;;;;;8.32;59.64;98975.00;4486602;31;20048;-87
2022/01/04 07:13:41;;;;;;;;;;;;;;;8.32;59.64;98975.00;4487084;31;20012;-88
2022/01/04 07:16:06;;;;;;;;;;;;;;;8.41;59.65;98981.63;4501643;31;20048;-88
2022/01/04 07:18:32;;;;;;;;;;;;;;;8.61;59.66;98986.97;4487058;31;20255;-88
2022/01/04 07:20:57;;;;;;;;;;;;;;;8.73;59.65;98983.91;4473376;31;19999;-87
2022/01/04 07:23:22;;;;;;;;;;;;;;;8.83;59.67;98990.47;4501667;31;20016;-88
2022/01/04 07:25:48;;;;;;;;;;;;;;;8.84;59.67;98989.56;4502137;31;20453;-88
2022/01/04 07:28:13;;;;;;;;;;;;;;;8.80;59.66;98990.56;4474782;31;20019;-88
2022/01/04 07:30:38;;;;;;;;;;;;;;;8.75;59.67;98999.41;4501618;31;20032;-87
2022/01/04 07:33:04;;;;;;;;;;;;;;;8.65;59.66;98998.91;4486099;31;24537;-89
2022/01/04 07:35:29;;;;;;;;;;;;;;;8.75;59.67;98991.62;4486251;31;20277;-87
2022/01/04 07:37:54;;;;;;;;;;;;;;;8.81;59.66;98989.69;4485547;31;27320;-87
2022/01/04 07:40:20;;;;;;;;;;;;;;;8.85;59.67;98969.66;4485060;31;25679;-87
2022/01/04 07:42:45;;;;;;;;;;;;;;;9.03;59.68;98979.34;4485773;31;19988;-87
2022/01/04 07:45:11;;;;;;;;;;;;;;;9.30;59.70;98963.59;4472603;31;20019;-86
2022/01/04 07:47:37;;;;;;;;;;;;;;;9.31;59.69;98968.72;4485740;31;20352;-86
2022/01/04 07:50:03;;;;;;;;;;;;;;;9.40;59.70;98967.50;4502345;31;20099;-86
2022/01/04 07:52:28;;;;;;;;;;;;;;;9.51;59.71;98963.59;4499920;31;20363;-85
2022/01/04 07:54:53;;;;;;;;;;;;;;;9.50;59.71;98954.09;4500065;31;20036;-87
2022/01/04 07:57:19;;;;;;;;;;;;;;;9.70;59.71;98947.22;4485775;31;20729;-86
2022/01/04 07:59:44;;;;;;;;;;;;;;;9.67;59.72;98942.16;4485703;31;20336;-87
2022/01/04 08:02:09;;;;;;;;;;;;;;;9.81;59.73;98939.84;4500240;31;20237;-88
2022/01/04 08:04:34;;;;;;;;;;;;;;;9.75;59.72;98937.50;4485543;31;19999;-86
2022/01/04 08:07:00;;;;;;;;;;;;;;;9.88;59.73;98935.22;4485660;31;19980;-87
2022/01/04 08:09:25;;;;;;;;;;;;;;;10.04;59.74;98931.94;4502830;31;19987;-88
2022/01/04 08:11:51;;;;;;;;;;;;;;;10.18;59.75;98930.50;4473355;31;20016;-87
2022/01/04 08:14:16;;;;;;;;;;;;;;;10.14;59.74;98927.16;4499901;31;19998;-87
2022/01/04 08:16:41;;;;;;;;;;;;;;;10.44;59.76;98918.06;4486512;31;20000;-88
2022/01/04 08:19:07;;;;;;;;;;;;;;;10.49;59.76;98910.03;4486400;31;19995;-87
2022/01/04 08:21:32;;;;;;;;;;;;;;;10.64;59.77;98909.34;4500461;31;20096;-86
2022/01/04 08:23:57;;;;;;;;;;;;;;;10.81;59.78;98892.09;4486319;31;19988;-87
2022/01/04 08:26:24;;;;;;;;;;;;;;;10.57;59.77;98887.13;4485528;31;25400;-86
2022/01/04 08:28:50;;;;;;;;;;;;;;;10.70;59.78;98887.41;4500633;31;20424;-86
2022/01/04 08:31:15;;;;;;;;;;;;;;;10.92;59.79;98885.50;4488217;31;19997;-87
2022/01/04 08:33:41;;;;;;;;;;;;;;;10.86;59.78;98884.91;4472582;31;20830;-87
2022/01/04 08:36:07;;;;;;;;;;;;;;;10.80;59.78;98875.66;4485964;31;20245;-87
2022/01/04 08:38:33;;;;;;;;;;;;;;;11.12;59.79;98878.47;4472883;31;20482;-88
2022/01/04 08:40:58;;;;;;;;;;;;;;;11.04;59.79;98887.50;4485585;31;25674;-87
2022/01/04 08:43:25;;;;;;;;;;;;;;;11.12;59.79;98884.56;4485782;31;21768;-86
2022/01/04 08:45:50;;;;;;;;;;;;;;;11.07;59.79;98892.56;4485926;31;20377;-87
2022/01/04 08:48:15;;;;;;;;;;;;;;;11.30;59.81;98886.25;4486105;31;19980;-87
2022/01/04 08:50:40;;;;;;;;;;;;;;;11.52;59.81;98879.97;4494644;31;19982;-86
2022/01/04 08:53:10;;;;;;;;;;;;;;;11.50;59.81;98871.41;4494626;31;20012;-85
2022/01/04 08:55:36;;;;;;;;;;;;;;;11.71;59.83;98864.28;4501820;31;20337;-87
2022/01/04 08:58:01;;;;;;;;;;;;;;;11.78;59.83;98878.69;4485984;31;20030;-87
2022/01/04 09:00:26;;;;;;;;;;;;;;;11.72;59.83;98865.97;4500153;31;20036;-87
2022/01/04 09:02:51;;;;;;;;;;;;;;;11.60;59.83;98857.84;4472663;31;20359;-87
2022/01/04 09:05:17;;;;;;;;;;;;;;;11.74;59.82;98838.88;4485028;31;19980;-86
2022/01/04 09:07:42;;;;;;;;;;;;;;;11.84;59.84;98847.97;4472378;31;22747;-86
2022/01/04 09:10:07;;;;;;;;;;;;;;;11.84;59.84;98868.00;4485839;31;19989;-85
2022/01/04 09:12:52;;;;;;;;;;;;;;;11.87;59.83;98862.62;4485765;31;20004;-86
2022/01/04 09:20:55;;;;;;;;;;;;;;;11.92;59.84;98834.53;4487683;31;20312;-86
2022/01/04 09:23:21;;;;;;;;;;;;;;;11.98;59.85;98819.41;4484940;31;20003;-88
2022/01/04 09:25:46;;;;;;;;;;;;;;;11.89;59.83;98826.87;4499530;31;20003;-87
2022/01/04 09:28:12;;;;;;;;;;;;;;;11.94;59.84;98833.53;4471693;31;20077;-88
2022/01/04 09:30:38;;;;;;;;;;;;;;;12.05;59.84;98824.28;4499202;31;20336;-88
2022/01/04 09:33:05;;;;;;;;;;;;;;;11.98;59.85;98814.19;4484989;31;20000;-88
2022/01/04 09:35:30;;;;;;;;;;;;;;;12.05;59.84;98819.91;4499296;31;20052;-87
2022/01/04 09:37:56;;;;;;;;;;;;;;;12.24;59.86;98801.50;4483884;31;28361;-88
2022/01/04 09:40:21;;;;;;;;;;;;;;;12.28;59.86;98788.22;4484755;31;20321;-88
2022/01/04 09:42:46;;;;;;;;;;;;;;;12.19;59.85;98793.09;4471361;31;20003;-87
2022/01/04 09:45:11;;;;;;;;;;;;;;;12.41;59.86;98796.22;4487234;31;19976;-88
2022/01/04 09:47:37;;;;;;;;;;;;;;;12.33;59.86;98789.75;4485633;31;20037;-88
2022/01/04 09:50:08;;;;;;;;;;;;;;;12.41;59.86;98783.19;4499864;31;20004;-88
2022/01/04 09:52:33;;;;;;;;;;;;;;;12.43;59.86;98773.50;4485852;31;20036;-88
2022/01/04 09:54:58;;;;;;;;;;;;;;;12.54;59.87;98758.09;4471746;31;20326;-88
2022/01/04 09:57:23;;;;;;;;;;;;;;;12.58;59.88;98743.94;4484675;31;19980;-88
2022/01/04 09:59:49;;;;;;;;;;;;;;;12.73;59.89;98742.22;4499496;31;19996;-88
2022/01/04 10:02:18;;;;;;;;;;;;;;;12.78;59.88;98736.75;4499733;31;19995;-89
2022/01/04 10:04:43;;;;;;;;;;;;;;;12.76;59.89;98725.53;4485134;31;19990;-89
2022/01/04 10:07:09;;;;;;;;;;;;;;;12.86;59.89;98730.16;4487871;31;19999;-88
2022/01/04 10:09:34;;;;;;;;;;;;;;;12.98;59.89;98725.12;4485176;31;19984;-88
2022/01/04 10:11:59;;;;;;;;;;;;;;;13.07;59.90;98725.47;4499778;31;20033;-88
2022/01/04 10:14:25;;;;;;;;;;;;;;;13.29;59.91;98712.00;4471870;31;19996;-87
2022/01/04 10:16:51;;;;;;;;;;;;;;;13.13;59.91;98700.75;4484877;31;19984;-88
2022/01/04 10:19:26;;;;;;;;;;;;;;;13.28;59.91;98704.25;4499404;31;20040;-87
2022/01/04 10:22:07;;;;;;;;;;;;;;;13.37;59.92;98699.31;4484670;31;20019;-88
2022/01/04 10:24:32;;;;;;;;;;;;;;;13.44;59.92;98691.94;4484970;31;19984;-87
2022/01/04 10:26:57;;;;;;;;;;;;;;;13.44;59.92;98697.16;4501051;31;24849;-85
2022/01/04 10:29:23;;;;;;;;;;;;;;;13.50;59.93;98699.44;4484276;31;20193;-87
2022/01/04 10:31:48;;;;;;;;;;;;;;;13.50;59.93;98695.03;4499456;31;20102;-87
2022/01/04 10:34:14;;;;;;;;;;;;;;;13.68;59.93;98689.59;4498944;31;19992;-86
2022/01/04 10:36:39;;;;;;;;;;;;;;;13.77;59.94;98675.97;4483961;31;20360;-87
2022/01/04 10:39:08;;;;;;;;;;;;;;;13.83;59.95;98673.81;4486793;31;19999;-86
2022/01/04 10:41:33;;;;;;;;;;;;;;;13.99;59.95;98672.88;4474054;31;19995;-85
2022/01/04 10:44:03;;;;;;;;;;;;;;;14.17;59.95;98674.28;4500870;31;25865;-86
2022/01/04 10:46:30;;;;;;;;;;;;;;;14.12;59.96;98674.59;4501641;31;20019;-87
2022/01/04 10:48:55;;;;;;;;;;;;;;;14.16;59.96;98677.00;4474130;31;19984;-86
2022/01/04 10:51:21;;;;;;;;;;;;;;;14.30;59.96;98677.81;4500498;31;30631;-87
2022/01/04 10:53:46;;;;;;;;;;;;;;;14.33;59.96;98679.41;4473930;31;20006;-87
2022/01/04 10:56:12;;;;;;;;;;;;;;;14.22;59.96;98671.41;4488299;31;20015;-86
2022/01/04 10:58:56;;;;;;;;;;;;;;;14.30;59.96;98659.50;4476492;31;20030;-88
2022/01/04 11:01:23;;;;;;;;;;;;;;;14.29;59.97;98657.81;4489720;31;19993;-88
2022/01/04 11:03:49;;;;;;;;;;;;;;;14.16;59.96;98656.06;4486804;31;20074;-88
2022/01/04 11:06:15;;;;;;;;;;;;;;;14.15;59.96;98650.00;4487026;31;20345;-88
2022/01/04 11:08:41;;;;;;;;;;;;;;;14.29;59.97;98641.28;4473505;31;19991;-88
2022/01/04 11:11:06;;;;;;;;;;;;;;;14.21;59.96;98643.56;4486990;31;20290;-87
2022/01/04 11:13:31;;;;;;;;;;;;;;;14.19;59.96;98633.16;4502280;31;20027;-88
2022/01/04 11:15:57;;;;;;;;;;;;;;;14.18;59.96;98615.78;4501136;31;19988;-87
2022/01/04 11:18:22;;;;;;;;;;;;;;;14.21;59.96;98620.84;4501147;31;19995;-87
2022/01/04 11:20:47;;;;;;;;;;;;;;;14.22;59.96;98611.22;4501657;31;19995;-86
2022/01/04 11:23:13;;;;;;;;;;;;;;;14.16;59.96;98611.56;4473423;31;22011;-87
2022/01/04 11:25:38;;;;;;;;;;;;;;;14.14;59.96;98599.44;4486651;31;20011;-87
2022/01/04 11:28:03;;;;;;;;;;;;;;;14.04;59.96;98605.38;4472991;31;23539;-87
2022/01/04 11:30:32;;;;;;;;;;;;;;;13.98;59.95;98590.06;4486288;31;20006;-87
2022/01/04 11:32:59;;;;;;;;;;;;;;;13.91;59.95;98604.47;4473305;31;20056;-87
2022/01/04 11:35:26;;;;;;;;;;;;;;;13.96;59.96;98616.34;4486401;31;19975;-87
2022/01/04 11:37:55;;;;;;;;;;;;;;;13.94;59.94;98612.94;4501038;31;20043;-87
2022/01/04 11:40:24;;;;;;;;;;;;;;;13.96;59.95;98605.00;4500982;31;20332;-86
2022/01/04 11:42:50;;;;;;;;;;;;;;;14.05;59.95;98581.72;4501808;31;20040;-87
2022/01/04 11:45:16;;;;;;;;;;;;;;;13.94;59.94;98568.47;4486575;31;20010;-87
2022/01/04 11:47:45;;;;;;;;;;;;;;;13.93;59.94;98569.41;4486872;31;20035;-87
2022/01/04 11:50:16;;;;;;;;;;;;;;;14.01;59.95;98579.41;4486386;31;19996;-87
2022/01/04 11:52:51;;;;;;;;;;;;;;;14.07;59.95;98584.25;4486816;31;20325;-87
2022/01/04 11:55:23;;;;;;;;;;;;;;;14.03;59.96;98573.13;4486526;31;19976;-87
2022/01/04 11:57:49;;;;;;;;;;;;;;;14.03;59.96;98561.84;4486325;31;20366;-86
2022/01/04 12:00:24;;;;;;;;;;;;;;;14.08;59.95;98551.91;4486041;31;20031;-88
2022/01/04 12:03:15;;;;;;;;;;;;;;;14.21;59.96;98554.56;4501409;31;20394;-87
2022/01/04 12:05:57;;;;;;;;;;;;;;;14.15;59.96;98561.00;4497354;31;20003;-87
2022/01/04 12:08:23;;;;;;;;;;;;;;;14.28;59.97;98554.06;4486190;31;20009;-88
2022/01/04 12:10:53;;;;;;;;;;;;;;;14.35;59.98;98557.94;4486317;31;20052;-87
2022/01/04 12:13:18;;;;;;;;;;;;;;;14.42;59.97;98548.72;4486135;31;19991;-87
2022/01/04 12:15:47;;;;;;;;;;;;;;;14.43;59.97;98534.75;4485988;31;20003;-84
2022/01/04 12:18:31;;;;;;;;;;;;;;;14.60;59.98;98532.75;4485982;31;20044;-87
2022/01/04 12:20:57;;;;;;;;;;;;;;;14.52;59.98;98543.75;4500548;31;19976;-87
2022/01/04 12:23:33;;;;;;;;;;;;;;;14.33;59.96;98544.09;4485405;31;20013;-87
2022/01/04 12:26:16;;;;;;;;;;;;;;;14.49;59.98;98546.59;4502078;31;20018;-87
2022/01/04 12:28:42;;;;;;;;;;;;;;;14.28;59.97;98540.13;4502069;31;19995;-87
2022/01/04 12:31:13;;;;;;;;;;;;;;;14.42;59.97;98538.25;4500765;31;20010;-86
2022/01/04 12:33:39;;;;;;;;;;;;;;;14.43;59.97;98526.03;4500252;31;20340;-86
2022/01/04 12:36:04;;;;;;;;;;;;;;;14.42;59.98;98529.56;4486118;31;19968;-86
2022/01/04 12:38:30;;;;;;;;;;;;;;;14.49;59.98;98536.13;4485823;31;19992;-86
2022/01/04 12:40:55;;;;;;;;;;;;;;;14.41;59.98;98526.09;4486298;31;19992;-87
2022/01/04 12:43:20;;;;;;;;;;;;;;;14.28;59.97;98506.94;4486047;31;19976;-86
2022/01/04 12:45:55;;;;;;;;;;;;;;;14.38;59.97;98494.91;4472295;31;29488;-88
2022/01/04 12:48:25;;;;;;;;;;;;;;;14.33;59.96;98496.16;4485809;31;20384;-88
2022/01/04 12:50:50;;;;;;;;;;;;;;;14.42;59.98;98500.75;4485930;31;20351;-87
2022/01/04 12:53:15;;;;;;;;;;;;;;;14.21;59.96;98495.22;4485394;31;29078;-87
2022/01/04 12:55:50;;;;;;;;;;;;;;;14.14;59.96;98493.91;4485514;31;19996;-86
2022/01/04 12:58:16;;;;;;;;;;;;;;;14.09;59.95;98485.53;4486596;31;20008;-86
2022/01/04 13:00:41;;;;;;;;;;;;;;;14.04;59.96;98491.09;4499799;31;19987;-87